Three Rivers, Michigan
Current Conditions -  °F | °C
As of 7:14 PM on Saturday 25 Oct 2014 (Local Time) from KHAI Reporting Station
Clear Clear  
Wind Chill: 61°   Ceiling: Unl
Heat Index: 61°   Visibility: 10mi
Dew Point: 37°   Wind: 10mph
Humidity: 40%   Direction: 290°WNW
Pressure: 29.86"   Gusts: NA
Location:  41.94°N, 85.64°W
Report Text: KHAI 252314Z AUTO 29009KT 10SM CLR 16/03 A2986 RMK AO2 T01630025
Loading
Personal Weather Stations






























Interactive Weather Map
Tropical Storm Tracking
New forecast layout! Learn more

10-Day Weather Forecast

Advertisements
Track Severe Weather on mobile